Time;durP1;ratioP1;P1;durP2;ratioP2;P2;SDS_P1;SDS_P2;PMS_P1;PMS_P2;Temp;Humidity;BMP_temperature;BMP_pressure;BME280_temperature;BME280_humidity;BME280_pressure;Samples;Min_cycle;Max_cycle;Signal;HPM_P1;HPM_P2
2021/07/22 00:00:17;;;;;;;7.40;6.05;;;22.90;51.80;;;;;;1489235;39;20043;-61
2021/07/22 00:01:37;;;;;;;8.95;6.22;;;22.90;51.90;;;;;;1488064;39;20024;-61
2021/07/22 00:02:58;;;;;;;6.60;5.32;;;22.90;52.00;;;;;;1486419;39;20028;-61
2021/07/22 00:04:19;;;;;;;7.00;5.75;;;22.90;52.10;;;;;;1487958;39;20046;-61
2021/07/22 00:05:40;;;;;;;7.53;6.00;;;22.90;52.10;;;;;;1488060;39;20348;-61
2021/07/22 00:07:01;;;;;;;6.90;5.60;;;22.90;52.20;;;;;;1487478;39;20043;-61
2021/07/22 00:08:22;;;;;;;6.55;5.55;;;22.80;52.30;;;;;;1487285;39;20030;-61
2021/07/22 00:09:42;;;;;;;6.75;5.30;;;22.90;52.50;;;;;;1485747;40;20296;-61
2021/07/22 00:11:06;;;;;;;8.18;6.10;;;22.90;52.50;;;;;;1487674;39;20039;-61
2021/07/22 00:12:27;;;;;;;6.70;5.25;;;22.90;52.90;;;;;;1489227;39;20034;-61
2021/07/22 00:13:48;;;;;;;7.20;5.55;;;22.90;52.80;;;;;;1490585;39;20028;-61
2021/07/22 00:15:10;;;;;;;7.05;5.90;;;22.90;52.90;;;;;;1486958;39;20021;-61
2021/07/22 00:16:31;;;;;;;8.70;6.22;;;22.90;52.90;;;;;;1488379;39;20036;-61
2021/07/22 00:17:52;;;;;;;7.55;6.00;;;22.90;52.80;;;;;;1488820;39;20412;-61
2021/07/22 00:19:12;;;;;;;6.72;5.78;;;22.90;52.80;;;;;;1485975;39;20042;-61
2021/07/22 00:20:33;;;;;;;6.90;5.95;;;22.90;52.80;;;;;;1487591;39;20032;-61
2021/07/22 00:21:54;;;;;;;7.40;5.82;;;22.90;52.80;;;;;;1487219;39;20028;-60
2021/07/22 00:23:15;;;;;;;8.20;6.28;;;22.90;52.80;;;;;;1486702;39;20072;-61
2021/07/22 00:24:36;;;;;;;7.50;6.07;;;22.90;52.80;;;;;;1489867;39;20031;-61
2021/07/22 00:25:57;;;;;;;7.88;5.95;;;22.90;52.60;;;;;;1489052;39;20296;-61
2021/07/22 00:27:18;;;;;;;7.85;6.60;;;22.90;52.40;;;;;;1486768;39;20055;-62
2021/07/22 00:28:39;;;;;;;9.70;6.47;;;22.90;52.20;;;;;;1488070;39;20039;-61
2021/07/22 00:30:01;;;;;;;8.70;6.85;;;22.90;52.10;;;;;;1486966;39;20035;-61
2021/07/22 00:31:22;;;;;;;8.05;6.28;;;22.80;52.00;;;;;;1489163;39;20040;-61
2021/07/22 00:32:42;;;;;;;8.60;6.40;;;22.80;52.00;;;;;;1489268;39;20052;-61
2021/07/22 00:34:03;;;;;;;8.50;5.70;;;22.80;52.10;;;;;;1487667;39;20031;-60
2021/07/22 00:35:24;;;;;;;7.43;5.97;;;22.80;52.10;;;;;;1489665;39;20031;-61
2021/07/22 00:36:45;;;;;;;8.50;6.65;;;22.80;52.10;;;;;;1485845;39;20048;-61
2021/07/22 00:38:06;;;;;;;7.75;6.15;;;22.80;52.10;;;;;;1487463;39;20036;-61
2021/07/22 00:39:27;;;;;;;9.18;6.68;;;22.80;52.10;;;;;;1487522;39;20028;-60
2021/07/22 00:40:48;;;;;;;9.23;6.90;;;22.80;52.20;;;;;;1487056;39;20116;-61
2021/07/22 00:42:09;;;;;;;8.23;6.22;;;22.80;52.40;;;;;;1489123;39;20130;-61
2021/07/22 00:43:30;;;;;;;6.93;6.13;;;22.80;52.50;;;;;;1487189;39;20031;-61
2021/07/22 00:44:50;;;;;;;8.10;6.28;;;22.80;52.60;;;;;;1489082;39;20076;-61
2021/07/22 00:46:11;;;;;;;7.85;6.63;;;22.80;52.80;;;;;;1488032;39;20033;-60
2021/07/22 00:47:32;;;;;;;8.75;6.65;;;22.80;52.80;;;;;;1487228;39;20142;-62
2021/07/22 00:48:53;;;;;;;7.72;6.25;;;22.70;52.80;;;;;;1489724;39;20345;-61
2021/07/22 00:50:14;;;;;;;10.48;6.82;;;22.70;52.80;;;;;;1487121;39;20401;-61
2021/07/22 00:51:35;;;;;;;8.65;6.65;;;22.70;53.00;;;;;;1490077;39;20132;-61
2021/07/22 00:52:56;;;;;;;8.80;6.80;;;22.70;53.00;;;;;;1487100;39;20020;-61
2021/07/22 00:54:17;;;;;;;8.10;6.25;;;22.70;53.00;;;;;;1489182;39;20033;-61
2021/07/22 00:55:38;;;;;;;7.93;6.70;;;22.70;53.00;;;;;;1487808;39;20048;-61
2021/07/22 00:56:59;;;;;;;7.85;6.53;;;22.70;53.20;;;;;;1489662;39;20137;-60
2021/07/22 00:58:20;;;;;;;7.75;5.85;;;22.70;53.20;;;;;;1488459;39;20025;-61
2021/07/22 00:59:41;;;;;;;9.88;6.80;;;22.70;53.20;;;;;;1487104;39;20032;-60
2021/07/22 01:01:02;;;;;;;8.20;6.13;;;22.70;53.40;;;;;;1490265;39;20364;-61
2021/07/22 01:02:23;;;;;;;9.18;6.60;;;22.70;53.50;;;;;;1487499;39;20757;-60
2021/07/22 01:03:44;;;;;;;6.35;5.70;;;22.70;53.60;;;;;;1487298;39;20028;-61
2021/07/22 01:05:06;;;;;;;6.88;6.15;;;22.70;53.70;;;;;;1488873;39;20035;-60
2021/07/22 01:06:27;;;;;;;7.60;6.07;;;22.70;53.80;;;;;;1488385;39;20064;-61
2021/07/22 01:07:48;;;;;;;8.20;6.25;;;22.70;53.90;;;;;;1486575;39;20049;-60
2021/07/22 01:09:08;;;;;;;8.77;6.57;;;22.70;53.90;;;;;;1488526;39;20031;-61
2021/07/22 01:10:30;;;;;;;8.70;6.50;;;22.70;54.00;;;;;;1487012;39;20033;-60
2021/07/22 01:11:50;;;;;;;8.02;6.13;;;22.70;54.00;;;;;;1488585;39;20266;-60
2021/07/22 01:13:11;;;;;;;9.70;6.57;;;22.70;54.00;;;;;;1484846;39;20025;-60
2021/07/22 01:14:32;;;;;;;9.45;6.70;;;22.60;53.90;;;;;;1488818;39;20109;-60
2021/07/22 01:15:53;;;;;;;9.00;6.88;;;22.60;53.90;;;;;;1490064;39;20360;-60
2021/07/22 01:17:40;;;;;;;7.78;6.72;;;22.60;53.90;;;;;;1487844;39;20047;-60
2021/07/22 01:19:01;;;;;;;9.40;6.95;;;22.60;54.10;;;;;;1487245;39;20028;-60
2021/07/22 01:20:23;;;;;;;8.25;6.80;;;22.60;53.70;;;;;;1489089;39;20114;-60
2021/07/22 01:21:44;;;;;;;8.60;6.30;;;22.60;53.80;;;;;;1489265;39;20036;-60
2021/07/22 01:23:05;;;;;;;8.70;6.80;;;22.60;53.80;;;;;;1488728;39;20028;-60
2021/07/22 01:24:26;;;;;;;8.63;7.15;;;22.60;53.80;;;;;;1486494;39;20051;-60
2021/07/22 01:25:48;;;;;;;8.85;7.13;;;22.60;53.80;;;;;;1488100;39;21020;-60
2021/07/22 01:27:08;;;;;;;9.00;6.63;;;22.60;53.80;;;;;;1488478;39;20032;-61
2021/07/22 01:28:29;;;;;;;9.25;6.65;;;22.50;53.90;;;;;;1488674;39;20289;-62
2021/07/22 01:29:51;;;;;;;10.15;7.90;;;22.50;53.90;;;;;;1486570;39;20024;-61
2021/07/22 01:31:11;;;;;;;10.65;8.02;;;22.50;53.90;;;;;;1488920;39;20039;-62
2021/07/22 01:32:32;;;;;;;10.45;7.60;;;22.50;53.90;;;;;;1488621;39;20056;-61
2021/07/22 01:33:53;;;;;;;9.05;6.93;;;22.50;53.90;;;;;;1486297;39;20039;-62
2021/07/22 01:35:14;;;;;;;10.13;6.80;;;22.50;53.90;;;;;;1487050;39;20020;-62
2021/07/22 01:36:35;;;;;;;7.85;6.80;;;22.40;53.90;;;;;;1487590;39;20032;-62
2021/07/22 01:37:56;;;;;;;8.32;6.82;;;22.40;53.90;;;;;;1487677;39;20284;-61
2021/07/22 01:39:17;;;;;;;10.20;7.68;;;22.40;54.00;;;;;;1489745;39;20032;-62
2021/07/22 01:40:38;;;;;;;8.80;6.60;;;22.40;54.00;;;;;;1486152;39;20044;-61
2021/07/22 01:41:59;;;;;;;9.40;7.00;;;22.40;54.00;;;;;;1488357;39;20040;-62
2021/07/22 01:43:20;;;;;;;9.95;7.50;;;22.30;53.80;;;;;;1489171;39;20289;-61
2021/07/22 01:44:41;;;;;;;8.48;7.18;;;22.30;53.80;;;;;;1489000;39;20036;-62
2021/07/22 01:46:01;;;;;;;7.90;6.65;;;22.30;53.80;;;;;;1488391;39;20030;-62
2021/07/22 01:47:22;;;;;;;9.20;7.80;;;22.20;53.90;;;;;;1488900;39;20032;-61
2021/07/22 01:48:43;;;;;;;11.35;7.72;;;22.20;54.00;;;;;;1486554;39;20072;-62
2021/07/22 01:50:05;;;;;;;9.90;7.30;;;22.20;54.10;;;;;;1486656;39;20332;-62
2021/07/22 01:51:26;;;;;;;9.85;8.02;;;22.20;54.20;;;;;;1489959;39;20028;-62
2021/07/22 01:52:47;;;;;;;10.85;8.07;;;22.20;54.20;;;;;;1488731;39;20024;-62
2021/07/22 01:54:07;;;;;;;10.52;8.30;;;22.10;54.20;;;;;;1487274;39;20024;-61
2021/07/22 01:55:28;;;;;;;9.95;7.55;;;22.10;54.20;;;;;;1487925;39;20072;-62
2021/07/22 01:56:49;;;;;;;8.60;7.38;;;22.10;54.20;;;;;;1488324;39;20030;-62
2021/07/22 01:58:10;;;;;;;8.80;7.50;;;22.10;54.80;;;;;;1487993;39;20032;-61
2021/07/22 01:59:35;;;;;;;9.32;7.72;;;22.10;54.20;;;;;;1486156;39;20044;-62
2021/07/22 02:00:56;;;;;;;10.27;7.82;;;22.10;54.30;;;;;;1486949;39;20038;-62
2021/07/22 02:02:17;;;;;;;9.40;8.00;;;22.00;54.20;;;;;;1488192;39;20120;-62
2021/07/22 02:03:38;;;;;;;8.77;6.88;;;22.00;54.30;;;;;;1490293;39;20049;-62
2021/07/22 02:04:59;;;;;;;9.43;7.57;;;22.00;54.40;;;;;;1486818;39;20376;-62
2021/07/22 02:06:20;;;;;;;9.57;7.22;;;21.90;54.40;;;;;;1486859;39;20446;-62
2021/07/22 02:07:41;;;;;;;10.85;7.70;;;21.90;54.40;;;;;;1486250;39;20043;-62
2021/07/22 02:09:02;;;;;;;10.52;8.20;;;21.90;54.40;;;;;;1488713;39;20020;-61
2021/07/22 02:10:23;;;;;;;10.50;7.47;;;21.90;54.40;;;;;;1486063;39;20336;-62
2021/07/22 02:11:43;;;;;;;11.15;8.00;;;21.90;54.50;;;;;;1486272;39;20043;-62
2021/07/22 02:13:05;;;;;;;10.20;7.80;;;21.90;54.60;;;;;;1486181;39;20035;-61
2021/07/22 02:14:26;;;;;;;11.13;8.10;;;21.90;55.20;;;;;;1486221;39;20034;-61
2021/07/22 02:15:47;;;;;;;10.25;7.40;;;21.80;54.80;;;;;;1486778;39;20304;-61
2021/07/22 02:17:08;;;;;;;12.23;7.85;;;21.80;54.80;;;;;;1487080;39;20024;-62
2021/07/22 02:18:29;;;;;;;12.20;7.55;;;21.80;54.80;;;;;;1488355;39;20042;-62
2021/07/22 02:19:50;;;;;;;10.70;7.03;;;21.80;54.80;;;;;;1486513;39;20394;-62
2021/07/22 02:21:11;;;;;;;13.48;8.48;;;21.80;54.90;;;;;;1487430;39;20366;-61
2021/07/22 02:22:32;;;;;;;13.93;9.38;;;21.70;54.90;;;;;;1487220;39;20044;-61
2021/07/22 02:23:53;;;;;;;12.88;8.50;;;21.70;54.90;;;;;;1488493;39;20028;-62
2021/07/22 02:25:14;;;;;;;15.07;9.25;;;21.70;54.80;;;;;;1488007;39;20116;-62
2021/07/22 02:26:35;;;;;;;11.68;8.40;;;21.70;54.80;;;;;;1484682;39;20109;-62
2021/07/22 02:27:56;;;;;;;10.55;7.40;;;21.70;54.90;;;;;;1488327;39;20038;-62
2021/07/22 02:29:17;;;;;;;9.43;7.75;;;21.70;54.90;;;;;;1487451;39;20113;-61
2021/07/22 02:30:38;;;;;;;12.45;8.80;;;21.60;55.00;;;;;;1489075;39;20024;-62
2021/07/22 02:31:59;;;;;;;12.95;8.60;;;21.60;55.10;;;;;;1481635;40;20068;-61
2021/07/22 02:33:20;;;;;;;10.73;8.00;;;21.60;55.20;;;;;;1484302;39;20072;-61
2021/07/22 02:34:41;;;;;;;13.35;8.38;;;21.60;55.20;;;;;;1488178;39;20027;-62
2021/07/22 02:36:02;;;;;;;13.40;9.50;;;21.60;55.30;;;;;;1490136;39;20028;-61
2021/07/22 02:37:23;;;;;;;13.95;9.50;;;21.60;55.30;;;;;;1486855;39;20056;-62
2021/07/22 02:38:44;;;;;;;11.27;8.77;;;21.50;55.30;;;;;;1487880;39;20392;-62
2021/07/22 02:40:05;;;;;;;11.20;7.97;;;21.50;55.30;;;;;;1486244;39;20028;-62
2021/07/22 02:41:29;;;;;;;13.00;8.45;;;21.50;55.30;;;;;;1487423;39;20035;-61
2021/07/22 02:42:50;;;;;;;11.02;8.77;;;21.50;55.40;;;;;;1485815;39;20036;-62
2021/07/22 02:44:10;;;;;;;11.45;7.93;;;21.50;55.40;;;;;;1484484;39;20032;-62
2021/07/22 02:45:31;;;;;;;12.77;8.93;;;21.50;55.60;;;;;;1488184;39;20044;-61
2021/07/22 02:46:52;;;;;;;9.45;8.00;;;21.50;55.70;;;;;;1486737;39;20036;-61
2021/07/22 02:48:13;;;;;;;10.32;7.57;;;21.40;55.70;;;;;;1484218;40;20024;-62
2021/07/22 02:49:34;;;;;;;13.75;9.00;;;21.40;55.70;;;;;;1486755;39;20028;-61
2021/07/22 02:50:55;;;;;;;12.55;8.40;;;21.40;55.80;;;;;;1488405;39;20273;-61
2021/07/22 02:52:16;;;;;;;13.60;7.97;;;21.40;55.90;;;;;;1485510;40;20024;-62
2021/07/22 02:53:37;;;;;;;10.82;8.05;;;21.30;56.00;;;;;;1487820;39;20476;-61
2021/07/22 02:54:58;;;;;;;11.98;8.35;;;21.30;56.10;;;;;;1486731;39;20356;-61
2021/07/22 02:56:19;;;;;;;12.27;8.80;;;21.30;56.10;;;;;;1489602;39;20039;-62
2021/07/22 02:57:40;;;;;;;16.33;9.18;;;21.30;56.20;;;;;;1488290;39;20052;-62
2021/07/22 02:59:00;;;;;;;12.13;9.07;;;21.30;56.70;;;;;;1486786;39;20031;-61
2021/07/22 03:00:21;;;;;;;11.13;8.98;;;21.30;56.30;;;;;;1485471;39;20057;-62
2021/07/22 03:01:42;;;;;;;12.27;8.27;;;21.20;56.30;;;;;;1489596;39;20028;-61
2021/07/22 03:03:03;;;;;;;11.18;8.50;;;21.20;56.30;;;;;;1487541;39;20376;-62
2021/07/22 03:04:24;;;;;;;13.05;9.00;;;21.20;56.40;;;;;;1487683;39;20379;-62
2021/07/22 03:05:45;;;;;;;11.60;9.02;;;21.20;56.50;;;;;;1487269;39;20041;-61
2021/07/22 03:07:06;;;;;;;10.32;9.10;;;21.20;56.60;;;;;;1489691;39;20028;-61
2021/07/22 03:08:27;;;;;;;11.80;8.75;;;21.20;56.70;;;;;;1490356;39;20028;-61
2021/07/22 03:09:48;;;;;;;11.93;9.13;;;21.10;56.60;;;;;;1486545;39;20032;-61
2021/07/22 03:11:10;;;;;;;11.82;8.77;;;21.10;56.70;;;;;;1487124;39;20040;-62
2021/07/22 03:12:31;;;;;;;12.20;8.30;;;21.10;56.90;;;;;;1489366;39;20048;-61
2021/07/22 03:13:51;;;;;;;11.23;8.55;;;21.10;56.80;;;;;;1487365;39;20027;-62
2021/07/22 03:15:12;;;;;;;13.32;9.65;;;21.00;56.80;;;;;;1488882;39;20039;-62
2021/07/22 03:16:33;;;;;;;11.63;9.52;;;21.00;56.90;;;;;;1490961;39;20039;-61
2021/07/22 03:17:54;;;;;;;11.82;9.02;;;21.10;57.10;;;;;;1488153;39;20028;-62
2021/07/22 03:19:15;;;;;;;13.45;10.13;;;21.00;57.00;;;;;;1488351;39;20024;-61
2021/07/22 03:20:36;;;;;;;12.20;8.35;;;21.00;57.10;;;;;;1490425;39;20044;-61
2021/07/22 03:21:57;;;;;;;11.80;9.45;;;21.00;57.20;;;;;;1487045;39;20036;-61
2021/07/22 03:23:18;;;;;;;12.13;9.75;;;21.00;57.20;;;;;;1490145;39;20373;-61
2021/07/22 03:24:39;;;;;;;14.40;10.30;;;21.00;57.20;;;;;;1488941;39;20032;-61
2021/07/22 03:26:00;;;;;;;19.30;10.73;;;21.00;57.30;;;;;;1486468;39;20016;-61
2021/07/22 03:27:20;;;;;;;15.18;10.10;;;21.00;57.40;;;;;;1487068;39;20039;-62
2021/07/22 03:28:41;;;;;;;15.13;10.48;;;21.00;57.40;;;;;;1488094;39;20044;-62
2021/07/22 03:30:02;;;;;;;14.07;9.77;;;21.00;57.40;;;;;;1487201;39;20020;-62
2021/07/22 03:31:23;;;;;;;11.45;8.38;;;21.00;57.40;;;;;;1486205;39;20032;-62
2021/07/22 03:32:44;;;;;;;12.73;9.65;;;21.00;57.50;;;;;;1491858;39;20038;-61
2021/07/22 03:34:05;;;;;;;11.68;8.98;;;21.00;57.40;;;;;;1487991;39;20035;-61
2021/07/22 03:35:26;;;;;;;18.55;11.20;;;21.00;57.40;;;;;;1488088;39;20027;-61
2021/07/22 03:36:47;;;;;;;15.80;11.63;;;21.00;57.40;;;;;;1491008;39;20032;-61
2021/07/22 03:38:08;;;;;;;13.35;10.55;;;21.00;57.40;;;;;;1489306;39;20025;-61
2021/07/22 03:39:29;;;;;;;14.82;10.98;;;21.00;57.40;;;;;;1488227;39;20036;-61
2021/07/22 03:40:49;;;;;;;14.75;10.75;;;21.00;57.40;;;;;;1490166;39;20039;-61
2021/07/22 03:42:11;;;;;;;15.35;11.70;;;21.00;57.50;;;;;;1489402;39;20072;-62
2021/07/22 03:43:31;;;;;;;16.23;11.30;;;20.90;57.50;;;;;;1488912;39;20032;-61
2021/07/22 03:44:52;;;;;;;15.98;12.00;;;21.00;57.60;;;;;;1486834;39;20032;-62
2021/07/22 03:46:13;;;;;;;17.48;12.38;;;21.00;57.70;;;;;;1487565;39;20034;-62
2021/07/22 03:47:34;;;;;;;17.50;12.52;;;21.00;57.70;;;;;;1482231;40;20355;-61
2021/07/22 03:48:55;;;;;;;19.00;13.10;;;20.90;57.70;;;;;;1488250;39;20024;-62
2021/07/22 03:50:16;;;;;;;16.02;11.75;;;21.00;57.70;;;;;;1485698;39;20039;-61
2021/07/22 03:51:37;;;;;;;15.82;11.57;;;20.90;57.60;;;;;;1489755;39;20039;-61
2021/07/22 03:52:58;;;;;;;13.15;10.52;;;20.90;57.60;;;;;;1487887;39;20032;-61
2021/07/22 03:54:18;;;;;;;14.95;10.50;;;20.90;57.60;;;;;;1488771;39;20040;-62
2021/07/22 03:55:39;;;;;;;13.77;10.80;;;20.90;57.70;;;;;;1489121;39;20035;-61
2021/07/22 03:57:01;;;;;;;14.20;9.80;;;20.90;57.70;;;;;;1489624;39;20029;-61
2021/07/22 03:58:22;;;;;;;12.90;9.50;;;20.90;57.80;;;;;;1489052;39;20025;-61
2021/07/22 03:59:43;;;;;;;13.27;9.85;;;20.90;57.80;;;;;;1487402;39;20043;-62
2021/07/22 04:01:05;;;;;;;11.93;9.27;;;20.90;57.90;;;;;;1490550;39;20036;-61
2021/07/22 04:02:26;;;;;;;13.65;9.50;;;20.90;58.10;;;;;;1486777;39;20043;-62
2021/07/22 04:03:47;;;;;;;13.65;10.02;;;20.80;58.00;;;;;;1488307;39;20444;-61
2021/07/22 04:05:08;;;;;;;13.73;9.65;;;20.90;58.10;;;;;;1488935;39;20083;-62
2021/07/22 04:06:33;;;;;;;13.55;10.23;;;20.80;58.20;;;;;;1487499;39;20029;-61
2021/07/22 04:07:56;;;;;;;14.00;9.57;;;20.80;58.20;;;;;;1487760;39;20124;-61
2021/07/22 04:09:16;;;;;;;14.85;10.23;;;20.80;58.30;;;;;;1486958;39;20358;-61
2021/07/22 04:10:37;;;;;;;15.23;10.15;;;20.80;58.30;;;;;;1484033;40;20032;-62
2021/07/22 04:11:58;;;;;;;14.27;9.82;;;20.80;58.40;;;;;;1485453;39;20083;-62
2021/07/22 04:13:19;;;;;;;13.65;10.63;;;20.80;58.50;;;;;;1487999;39;20050;-62
2021/07/22 04:14:40;;;;;;;14.48;10.40;;;20.80;58.50;;;;;;1487012;39;20028;-62
2021/07/22 04:16:02;;;;;;;13.75;10.40;;;20.80;58.60;;;;;;1488158;39;20633;-61
2021/07/22 04:17:23;;;;;;;11.63;9.25;;;20.80;58.60;;;;;;1487051;39;20273;-62
2021/07/22 04:18:44;;;;;;;13.20;10.30;;;20.80;58.60;;;;;;1488670;39;20032;-61
2021/07/22 04:20:08;;;;;;;12.88;9.80;;;20.80;58.60;;;;;;1487555;39;20032;-62
2021/07/22 04:21:29;;;;;;;15.73;10.45;;;20.80;58.60;;;;;;1484886;39;20028;-61
2021/07/22 04:22:51;;;;;;;14.10;10.77;;;20.80;58.60;;;;;;1485347;39;20050;-61
2021/07/22 04:24:12;;;;;;;14.75;10.57;;;20.80;58.70;;;;;;1486699;39;20016;-62
2021/07/22 04:25:33;;;;;;;11.75;9.38;;;20.80;58.70;;;;;;1488062;39;20062;-61
2021/07/22 04:26:54;;;;;;;11.93;9.43;;;20.80;58.80;;;;;;1489702;39;20124;-61
2021/07/22 04:28:15;;;;;;;14.32;10.75;;;20.80;58.80;;;;;;1487771;39;20036;-62
2021/07/22 04:29:36;;;;;;;16.02;10.40;;;20.80;58.80;;;;;;1481915;40;20386;-61
2021/07/22 04:30:57;;;;;;;13.50;9.98;;;20.80;58.80;;;;;;1487018;39;20060;-61
2021/07/22 04:32:18;;;;;;;15.05;11.05;;;20.80;58.80;;;;;;1489819;39;20030;-62
2021/07/22 04:33:38;;;;;;;14.23;10.30;;;20.80;58.90;;;;;;1485724;39;20051;-61
2021/07/22 04:35:01;;;;;;;13.25;10.27;;;20.80;58.90;;;;;;1487211;39;20455;-61
2021/07/22 04:36:22;;;;;;;14.73;10.90;;;20.80;59.00;;;;;;1487077;39;20206;-62
2021/07/22 04:37:43;;;;;;;16.63;11.63;;;20.80;58.90;;;;;;1490230;39;20373;-62
2021/07/22 04:39:03;;;;;;;14.82;10.95;;;20.80;58.90;;;;;;1487625;39;20052;-61
2021/07/22 04:40:24;;;;;;;12.98;10.20;;;20.80;58.80;;;;;;1487806;39;20035;-61
2021/07/22 04:41:45;;;;;;;15.95;11.35;;;20.80;58.80;;;;;;1487718;39;20051;-61
2021/07/22 04:43:06;;;;;;;13.65;9.88;;;20.80;58.80;;;;;;1487289;39;20027;-61
2021/07/22 04:44:27;;;;;;;13.02;10.10;;;20.80;58.80;;;;;;1488334;39;20032;-62
2021/07/22 04:45:48;;;;;;;18.05;11.90;;;20.80;58.80;;;;;;1486974;39;20031;-61
2021/07/22 04:47:09;;;;;;;16.63;10.98;;;20.80;58.90;;;;;;1487107;39;20032;-61
2021/07/22 04:48:30;;;;;;;13.20;10.05;;;20.80;58.90;;;;;;1488460;39;20040;-61
2021/07/22 04:49:51;;;;;;;15.15;11.27;;;20.80;58.90;;;;;;1487860;39;20035;-61
2021/07/22 04:51:12;;;;;;;15.38;11.82;;;20.80;58.90;;;;;;1491657;39;20023;-61
2021/07/22 04:52:33;;;;;;;15.50;11.07;;;20.80;58.90;;;;;;1488916;39;20045;-62
2021/07/22 04:53:54;;;;;;;16.67;12.00;;;20.80;58.90;;;;;;1488980;39;20068;-61
2021/07/22 04:55:16;;;;;;;16.10;11.35;;;20.80;59.10;;;;;;1490415;39;20045;-61
2021/07/22 04:56:37;;;;;;;17.98;12.45;;;20.80;59.00;;;;;;1489492;39;20042;-61
2021/07/22 04:58:01;;;;;;;15.18;11.23;;;20.80;59.00;;;;;;1482823;40;20029;-61
2021/07/22 04:59:21;;;;;;;15.38;10.77;;;20.80;59.20;;;;;;1485122;39;20032;-61
2021/07/22 05:00:42;;;;;;;15.45;11.45;;;20.80;59.00;;;;;;1487671;39;20035;-61
2021/07/22 05:02:03;;;;;;;16.02;11.35;;;20.80;59.00;;;;;;1486372;39;20025;-62
2021/07/22 05:03:24;;;;;;;13.20;10.20;;;20.80;59.00;;;;;;1489824;39;20052;-61
2021/07/22 05:04:46;;;;;;;18.27;13.25;;;20.80;59.00;;;;;;1489289;39;20016;-61
2021/07/22 05:06:08;;;;;;;17.42;12.68;;;20.80;59.10;;;;;;1485745;39;20028;-61
2021/07/22 05:07:29;;;;;;;16.95;11.95;;;20.80;59.10;;;;;;1488092;39;20036;-62
2021/07/22 05:08:50;;;;;;;14.70;11.00;;;20.80;59.10;;;;;;1486540;39;20035;-62
2021/07/22 05:10:11;;;;;;;20.20;12.43;;;20.80;59.10;;;;;;1488191;39;20036;-61
2021/07/22 05:11:32;;;;;;;19.58;13.00;;;20.80;59.10;;;;;;1486984;39;20071;-62
2021/07/22 05:13:04;;;;;;;18.35;12.68;;;20.80;59.20;;;;;;1487658;39;20358;-61
2021/07/22 05:14:24;;;;;;;15.88;11.38;;;20.80;59.50;;;;;;1489338;39;20032;-61
2021/07/22 05:15:46;;;;;;;14.90;11.02;;;20.80;59.20;;;;;;1488575;39;20324;-61
2021/07/22 05:17:07;;;;;;;18.58;12.65;;;20.80;59.20;;;;;;1487083;39;20284;-61
2021/07/22 05:18:27;;;;;;;14.95;11.35;;;20.80;59.30;;;;;;1489193;39;20039;-61
2021/07/22 05:19:48;;;;;;;18.42;13.00;;;20.80;59.30;;;;;;1488011;39;20044;-62
2021/07/22 05:21:09;;;;;;;20.60;12.13;;;20.80;59.50;;;;;;1487111;39;20039;-61
2021/07/22 05:22:30;;;;;;;19.95;12.70;;;20.80;59.50;;;;;;1488891;39;20112;-61
2021/07/22 05:23:51;;;;;;;18.40;12.23;;;20.80;59.60;;;;;;1486636;39;20039;-62
2021/07/22 05:25:12;;;;;;;15.40;11.85;;;20.80;59.60;;;;;;1489401;39;20100;-61
2021/07/22 05:26:33;;;;;;;17.95;12.18;;;20.80;59.60;;;;;;1489414;39;20028;-62
2021/07/22 05:27:54;;;;;;;17.77;12.65;;;20.80;59.60;;;;;;1490090;39;20032;-61
2021/07/22 05:29:15;;;;;;;17.80;13.23;;;20.80;59.60;;;;;;1486991;39;20274;-62
2021/07/22 05:30:36;;;;;;;17.52;12.45;;;20.80;59.60;;;;;;1488701;39;20028;-61
2021/07/22 05:31:57;;;;;;;21.13;14.65;;;20.90;59.60;;;;;;1489121;39;20047;-61
2021/07/22 05:33:18;;;;;;;20.38;15.02;;;20.80;59.60;;;;;;1486955;39;20027;-61
2021/07/22 05:34:39;;;;;;;21.05;15.10;;;20.90;59.60;;;;;;1488843;39;20273;-62
2021/07/22 05:36:19;;;;;;;18.63;14.73;;;20.90;59.60;;;;;;1488587;39;20016;-62
2021/07/22 05:37:39;;;;;;;20.20;14.25;;;20.80;59.80;;;;;;1487471;39;20036;-62
2021/07/22 05:39:01;;;;;;;17.88;13.75;;;20.90;59.40;;;;;;1485368;39;20028;-61
2021/07/22 05:40:23;;;;;;;20.42;14.18;;;20.90;60.00;;;;;;1488067;39;20023;-61
2021/07/22 05:41:44;;;;;;;19.90;15.02;;;20.90;59.60;;;;;;1489563;39;20027;-61
2021/07/22 05:43:05;;;;;;;17.52;13.88;;;20.90;59.70;;;;;;1489227;39;20030;-61
2021/07/22 05:44:26;;;;;;;18.67;14.23;;;20.90;59.70;;;;;;1490164;39;20426;-61
2021/07/22 05:45:47;;;;;;;16.65;12.52;;;20.90;59.80;;;;;;1488626;39;20046;-61
2021/07/22 05:47:07;;;;;;;21.67;14.98;;;20.90;59.90;;;;;;1489240;39;20137;-61
2021/07/22 05:48:28;;;;;;;21.80;15.48;;;20.90;59.90;;;;;;1487699;39;20024;-61
2021/07/22 05:49:49;;;;;;;20.45;15.75;;;20.90;59.80;;;;;;1487203;39;20383;-61
2021/07/22 05:51:10;;;;;;;21.13;15.85;;;21.00;59.70;;;;;;1487725;39;20028;-61
2021/07/22 05:52:31;;;;;;;22.73;15.55;;;21.00;59.70;;;;;;1487331;39;20044;-62
2021/07/22 05:53:52;;;;;;;19.45;13.77;;;21.00;59.60;;;;;;1488544;39;20028;-61
2021/07/22 05:55:13;;;;;;;21.00;15.13;;;21.00;59.70;;;;;;1486697;39;20264;-62
2021/07/22 05:56:35;;;;;;;23.45;14.63;;;21.00;59.70;;;;;;1486305;39;20121;-61
2021/07/22 05:57:55;;;;;;;23.80;16.05;;;21.00;59.60;;;;;;1489359;39;20130;-62
2021/07/22 05:59:16;;;;;;;22.25;15.18;;;21.00;59.60;;;;;;1487059;39;20032;-62
2021/07/22 06:00:37;;;;;;;23.08;16.77;;;21.10;60.30;;;;;;1484670;39;20046;-61
2021/07/22 06:01:58;;;;;;;21.05;15.38;;;21.10;59.70;;;;;;1487718;39;20218;-62
2021/07/22 06:03:19;;;;;;;21.83;15.80;;;21.10;59.70;;;;;;1487945;39;20134;-61
2021/07/22 06:04:40;;;;;;;20.95;15.55;;;21.10;59.70;;;;;;1490347;39;20035;-61
2021/07/22 06:06:04;;;;;;;19.15;15.15;;;21.10;59.80;;;;;;1487527;39;20048;-62
2021/07/22 06:07:25;;;;;;;22.38;16.08;;;21.10;59.90;;;;;;1488059;39;20069;-61
2021/07/22 06:08:46;;;;;;;23.33;16.48;;;21.10;59.80;;;;;;1486878;39;20031;-61
2021/07/22 06:10:07;;;;;;;20.38;15.13;;;21.10;60.70;;;;;;1489803;39;20050;-61
2021/07/22 06:11:28;;;;;;;25.20;16.27;;;21.20;60.10;;;;;;1486267;39;20082;-61
2021/07/22 06:12:49;;;;;;;23.10;15.65;;;21.10;60.20;;;;;;1485665;39;20062;-61
2021/07/22 06:14:10;;;;;;;23.15;15.52;;;21.20;60.40;;;;;;1488702;39;20027;-61
2021/07/22 06:15:31;;;;;;;21.55;15.80;;;21.20;60.60;;;;;;1489704;39;20333;-61
2021/07/22 06:16:52;;;;;;;21.58;15.77;;;21.20;60.80;;;;;;1485458;39;20028;-61
2021/07/22 06:18:13;;;;;;;21.00;16.27;;;21.20;61.00;;;;;;1486120;39;20423;-61
2021/07/22 06:19:34;;;;;;;20.63;15.85;;;21.30;61.30;;;;;;1489077;39;20032;-62
2021/07/22 06:20:56;;;;;;;24.08;15.43;;;21.30;61.40;;;;;;1485849;39;20027;-61
2021/07/22 06:22:18;;;;;;;18.23;14.43;;;21.30;61.50;;;;;;1482102;40;20032;-61
2021/07/22 06:23:39;;;;;;;19.15;15.02;;;21.40;61.70;;;;;;1487441;39;20072;-61
2021/07/22 06:25:00;;;;;;;20.38;14.73;;;21.40;61.70;;;;;;1488662;39;20020;-61
2021/07/22 06:26:20;;;;;;;21.38;15.98;;;21.40;61.80;;;;;;1488441;39;20260;-61
2021/07/22 06:27:43;;;;;;;21.55;16.30;;;21.50;61.90;;;;;;1487271;39;20036;-61
2021/07/22 06:29:04;;;;;;;21.30;15.75;;;21.50;61.90;;;;;;1487239;39;20020;-62
2021/07/22 06:30:25;;;;;;;21.88;16.50;;;21.60;61.70;;;;;;1487359;39;20035;-61
2021/07/22 06:31:46;;;;;;;21.08;16.17;;;21.60;62.20;;;;;;1488373;39;20039;-61
2021/07/22 06:33:06;;;;;;;21.45;16.05;;;21.60;61.30;;;;;;1487427;39;20352;-61
2021/07/22 06:34:27;;;;;;;21.63;15.90;;;21.70;61.10;;;;;;1487622;39;20067;-62
2021/07/22 06:35:49;;;;;;;23.95;16.20;;;21.70;61.10;;;;;;1487330;39;20044;-62
2021/07/22 06:37:09;;;;;;;21.83;16.25;;;21.70;61.00;;;;;;1485591;39;20035;-61
2021/07/22 06:38:31;;;;;;;19.85;15.05;;;21.80;61.10;;;;;;1486875;39;20060;-61
2021/07/22 06:39:51;;;;;;;19.63;14.73;;;21.80;60.90;;;;;;1487588;39;20104;-61
2021/07/22 06:41:12;;;;;;;20.38;14.45;;;21.90;60.90;;;;;;1487356;39;20020;-62
2021/07/22 06:42:33;;;;;;;19.48;15.07;;;21.90;60.80;;;;;;1489429;39;20069;-61
2021/07/22 06:43:54;;;;;;;20.75;15.73;;;21.90;60.90;;;;;;1485598;39;20044;-62
2021/07/22 06:45:15;;;;;;;21.80;15.20;;;22.00;60.80;;;;;;1485358;39;20041;-62
2021/07/22 06:46:36;;;;;;;18.85;14.82;;;22.00;60.70;;;;;;1488062;39;20024;-61
2021/07/22 06:47:57;;;;;;;19.33;15.15;;;22.10;61.50;;;;;;1486353;39;20365;-61
2021/07/22 06:49:17;;;;;;;22.02;15.32;;;22.10;60.60;;;;;;1487836;39;20114;-62
2021/07/22 06:50:38;;;;;;;18.73;14.43;;;22.20;60.70;;;;;;1486230;39;20035;-62
2021/07/22 06:51:59;;;;;;;19.88;14.82;;;22.20;60.70;;;;;;1486607;39;20040;-61
2021/07/22 06:53:21;;;;;;;21.33;15.48;;;22.20;60.70;;;;;;1487646;39;20064;-61
2021/07/22 06:54:42;;;;;;;21.10;15.30;;;22.30;60.70;;;;;;1486082;39;20029;-61
2021/07/22 06:56:03;;;;;;;21.63;15.93;;;22.30;60.80;;;;;;1487562;39;20033;-61